This is the latest recevied weather packets stored in our database for station/object IT9CNT. If no packets are shown the sender has not sent any weather packets the latest 1 day(s).
| Time | Temp. | Humidity | Pressure | Rain* | Wind** | Luminosity | Snow |
|---|---|---|---|---|---|---|---|
| 1778086804 | 20° C | 82% | 1009.1 hPa | 0 mm | - | - | - |
| 1778083024 | 21.67° C | 68% | 1009 hPa | 0 mm | - | - | - |
| 1778082844 | 21.67° C | 67% | 1009.2 hPa | 0 mm | - | - | - |
| 1778079964 | 21.67° C | 76% | 1009.6 hPa | 0 mm | - | - | - |
| 1778076484 | 22.22° C | 66% | 1010 hPa | 0 mm | - | - | - |
| 1778074624 | 22.78° C | 63% | 1010.3 hPa | 0 mm | - | - | - |
| 1778073004 | 21.67° C | 80% | 1010.6 hPa | 0 mm | - | - | - |
| 1778072824 | 21.11° C | 83% | 1010.6 hPa | 0 mm | - | - | - |
| 1778072404 | 21.11° C | 83% | 1010.9 hPa | 0 mm | - | - | - |
| 1778069944 | 22.22° C | 54% | 1011.3 hPa | 0 mm | - | - | - |
| 1778068204 | 22.78° C | 55% | 1010.5 hPa | 0 mm | - | - | - |
| 1778068024 | 22.22° C | 57% | 1010.9 hPa | 0 mm | - | - | - |
| 1778067844 | 22.22° C | 56% | 1010.9 hPa | 0 mm | - | - | - |
| 1778063343 | 21.67° C | 70% | 1011.4 hPa | 0 mm | - | - | - |
| 1778063283 | 22.22° C | 69% | 1011.5 hPa | 0 mm | - | - | - |
| 1778062384 | 21.67° C | 70% | 1011.6 hPa | 0 mm | - | - | - |
| 1778061724 | 22.22° C | 71% | 1011.7 hPa | 0 mm | - | - | - |
| 1778060404 | 20.56° C | 73% | 1011.5 hPa | 0 mm | - | - | - |
| 1778059684 | 21.11° C | 73% | 1011.4 hPa | 0 mm | - | - | - |
| 1778058963 | 21.11° C | 73% | 1011.5 hPa | 0 mm | - | - | - |
| 1778058243 | 21.11° C | 73% | 1011.4 hPa | 0 mm | - | - | - |
| 1778057884 | 20° C | 73% | 1011.6 hPa | 0 mm | - | - | - |
| 1778057824 | 20° C | 73% | 1011.7 hPa | 0 mm | - | - | - |
| 1778057764 | 19.44° C | 73% | 1011.8 hPa | 0 mm | - | - | - |
| 1778057464 | 20° C | 74% | 1012 hPa | 0 mm | - | - | - |
* Rain latest hour (hover to see other rain measurements)
** Current wind speed in m/s (hover to see current wind gust speed)